sensor_id;sensor_type;location;lat;lon;timestamp;pressure;altitude;pressure_sealevel;temperature;humidity
17209;BME280;8720;48.488;9.202;2023-03-14T00:00:09;95518.75;;;14.70;61.90
17209;BME280;8720;48.488;9.202;2023-03-14T00:02:37;95520.53;;;14.70;61.92
17209;BME280;8720;48.488;9.202;2023-03-14T00:05:08;95512.72;;;14.68;61.97
17209;BME280;8720;48.488;9.202;2023-03-14T00:07:37;95493.56;;;14.66;61.78
17209;BME280;8720;48.488;9.202;2023-03-14T00:10:12;95470.91;;;14.64;62.08
17209;BME280;8720;48.488;9.202;2023-03-14T00:12:40;95430.78;;;14.60;61.97
17209;BME280;8720;48.488;9.202;2023-03-14T00:15:09;95394.16;;;14.57;62.08
17209;BME280;8720;48.488;9.202;2023-03-14T00:17:37;95386.94;;;14.46;62.23
17209;BME280;8720;48.488;9.202;2023-03-14T00:20:09;95366.25;;;14.54;62.15
17209;BME280;8720;48.488;9.202;2023-03-14T00:22:38;95376.03;;;14.52;61.90
17209;BME280;8720;48.488;9.202;2023-03-14T00:25:09;95370.13;;;14.49;61.91
17209;BME280;8720;48.488;9.202;2023-03-14T00:27:37;95365.06;;;14.46;61.74
17209;BME280;8720;48.488;9.202;2023-03-14T00:30:07;95379.25;;;14.43;61.89
17209;BME280;8720;48.488;9.202;2023-03-14T00:32:35;95394.31;;;14.41;61.88
17209;BME280;8720;48.488;9.202;2023-03-14T00:35:03;95406.94;;;14.36;61.74
17209;BME280;8720;48.488;9.202;2023-03-14T00:37:31;95395.44;;;14.37;61.66
17209;BME280;8720;48.488;9.202;2023-03-14T00:39:59;95396.41;;;14.36;61.74
17209;BME280;8720;48.488;9.202;2023-03-14T00:42:26;95393.84;;;14.35;61.54
17209;BME280;8720;48.488;9.202;2023-03-14T00:44:53;95404.38;;;14.35;61.79
17209;BME280;8720;48.488;9.202;2023-03-14T00:47:21;95413.22;;;14.34;61.75
17209;BME280;8720;48.488;9.202;2023-03-14T00:49:48;95421.75;;;14.23;61.38
17209;BME280;8720;48.488;9.202;2023-03-14T00:52:15;95432.56;;;14.33;61.85
17209;BME280;8720;48.488;9.202;2023-03-14T00:54:44;95429.09;;;14.32;61.86
17209;BME280;8720;48.488;9.202;2023-03-14T00:57:11;95430.78;;;14.33;61.90
17209;BME280;8720;48.488;9.202;2023-03-14T00:59:39;95432.56;;;14.33;61.67
17209;BME280;8720;48.488;9.202;2023-03-14T01:02:06;95456.16;;;14.34;61.94
17209;BME280;8720;48.488;9.202;2023-03-14T01:04:33;95461.41;;;14.34;61.83
17209;BME280;8720;48.488;9.202;2023-03-14T01:07:03;95458.69;;;14.36;61.64
17209;BME280;8720;48.488;9.202;2023-03-14T01:09:31;95461.31;;;14.36;61.81
17209;BME280;8720;48.488;9.202;2023-03-14T01:12:00;95458.69;;;14.36;61.66
17209;BME280;8720;48.488;9.202;2023-03-14T01:14:27;95463.94;;;14.36;61.91
17209;BME280;8720;48.488;9.202;2023-03-14T01:16:54;95462.91;;;14.38;61.93
17209;BME280;8720;48.488;9.202;2023-03-14T01:19:28;95453.13;;;14.40;61.87
17209;BME280;8720;48.488;9.202;2023-03-14T01:21:55;95426.50;;;14.45;62.02
17209;BME280;8720;48.488;9.202;2023-03-14T01:24:22;95421.06;;;14.48;61.94
17209;BME280;8720;48.488;9.202;2023-03-14T01:26:50;95418.97;;;14.53;61.77
17209;BME280;8720;48.488;9.202;2023-03-14T01:29:20;95421.41;;;14.56;61.68
17209;BME280;8720;48.488;9.202;2023-03-14T01:31:47;95407.69;;;14.51;61.68
17209;BME280;8720;48.488;9.202;2023-03-14T01:34:14;95414.69;;;14.65;61.60
17209;BME280;8720;48.488;9.202;2023-03-14T01:36:42;95416.28;;;14.67;61.64
17209;BME280;8720;48.488;9.202;2023-03-14T01:39:10;95406.59;;;14.68;61.46
17209;BME280;8720;48.488;9.202;2023-03-14T01:41:40;95396.06;;;14.68;61.40
17209;BME280;8720;48.488;9.202;2023-03-14T01:44:10;95397.13;;;14.65;61.51
17209;BME280;8720;48.488;9.202;2023-03-14T01:46:41;95389.81;;;14.56;61.47
17209;BME280;8720;48.488;9.202;2023-03-14T01:49:29;95398.16;;;14.63;61.46
17209;BME280;8720;48.488;9.202;2023-03-14T01:52:06;95378.88;;;14.62;61.50
17209;BME280;8720;48.488;9.202;2023-03-14T01:54:40;95380.69;;;14.62;61.46
17209;BME280;8720;48.488;9.202;2023-03-14T01:57:16;95373.72;;;14.61;61.39
17209;BME280;8720;48.488;9.202;2023-03-14T01:59:51;95360.22;;;14.52;61.46
17209;BME280;8720;48.488;9.202;2023-03-14T02:02:21;95366.78;;;14.60;61.36
17209;BME280;8720;48.488;9.202;2023-03-14T02:04:52;95366.97;;;14.56;61.56
17209;BME280;8720;48.488;9.202;2023-03-14T02:07:31;95375.72;;;14.57;61.50
17209;BME280;8720;48.488;9.202;2023-03-14T02:10:14;95368.03;;;14.54;61.60
17209;BME280;8720;48.488;9.202;2023-03-14T02:12:42;95368.88;;;14.54;61.44
17209;BME280;8720;48.488;9.202;2023-03-14T02:15:16;95371.72;;;14.51;61.54
17209;BME280;8720;48.488;9.202;2023-03-14T02:17:58;95360.03;;;14.55;61.71
17209;BME280;8720;48.488;9.202;2023-03-14T02:20:51;95351.00;;;14.60;61.69
17209;BME280;8720;48.488;9.202;2023-03-14T02:23:30;95346.38;;;14.63;61.68
17209;BME280;8720;48.488;9.202;2023-03-14T02:26:07;95333.84;;;14.67;61.78
17209;BME280;8720;48.488;9.202;2023-03-14T02:28:38;95329.22;;;14.70;61.43
17209;BME280;8720;48.488;9.202;2023-03-14T02:31:06;95331.75;;;14.72;61.39
17209;BME280;8720;48.488;9.202;2023-03-14T02:33:37;95341.34;;;14.73;61.29
17209;BME280;8720;48.488;9.202;2023-03-14T02:36:10;95354.41;;;14.74;61.42
17209;BME280;8720;48.488;9.202;2023-03-14T02:38:46;95338.72;;;14.73;61.31
17209;BME280;8720;48.488;9.202;2023-03-14T02:41:15;95335.13;;;14.74;61.21
17209;BME280;8720;48.488;9.202;2023-03-14T02:43:50;95336.81;;;14.75;61.11
17209;BME280;8720;48.488;9.202;2023-03-14T02:46:20;95335.34;;;14.71;61.36
17209;BME280;8720;48.488;9.202;2023-03-14T02:48:53;95327.97;;;14.76;60.86
17209;BME280;8720;48.488;9.202;2023-03-14T02:51:26;95323.75;;;14.73;61.21
17209;BME280;8720;48.488;9.202;2023-03-14T02:53:54;95312.28;;;14.62;61.03
17209;BME280;8720;48.488;9.202;2023-03-14T02:56:24;95312.38;;;14.73;61.03
17209;BME280;8720;48.488;9.202;2023-03-14T02:58:53;95323.84;;;14.72;60.79
17209;BME280;8720;48.488;9.202;2023-03-14T03:04:08;95325.97;;;14.67;60.81
17209;BME280;8720;48.488;9.202;2023-03-14T03:06:36;95319.94;;;14.65;60.81
17209;BME280;8720;48.488;9.202;2023-03-14T03:09:04;95299.53;;;14.55;60.97
17209;BME280;8720;48.488;9.202;2023-03-14T03:11:31;95294.66;;;14.62;60.82
17209;BME280;8720;48.488;9.202;2023-03-14T03:14:00;95309.63;;;14.62;60.73
17209;BME280;8720;48.488;9.202;2023-03-14T03:16:28;95310.56;;;14.61;60.62
17209;BME280;8720;48.488;9.202;2023-03-14T03:18:56;95311.53;;;14.60;60.57
17209;BME280;8720;48.488;9.202;2023-03-14T03:21:23;95309.94;;;14.57;60.58
17209;BME280;8720;48.488;9.202;2023-03-14T03:24:05;95298.78;;;14.53;60.58
17209;BME280;8720;48.488;9.202;2023-03-14T03:26:36;95280.22;;;14.42;60.73
17209;BME280;8720;48.488;9.202;2023-03-14T03:29:07;95282.53;;;14.47;60.74
17209;BME280;8720;48.488;9.202;2023-03-14T03:31:37;95287.91;;;14.45;60.69
17209;BME280;8720;48.488;9.202;2023-03-14T03:34:05;95280.13;;;14.44;60.62
17209;BME280;8720;48.488;9.202;2023-03-14T03:36:32;95265.28;;;14.43;60.55
17209;BME280;8720;48.488;9.202;2023-03-14T03:39:00;95268.94;;;14.40;60.50
17209;BME280;8720;48.488;9.202;2023-03-14T03:41:27;95269.06;;;14.39;60.27
17209;BME280;8720;48.488;9.202;2023-03-14T03:43:55;95250.84;;;14.36;60.46
17209;BME280;8720;48.488;9.202;2023-03-14T03:46:24;95259.78;;;14.33;60.21
17209;BME280;8720;48.488;9.202;2023-03-14T03:48:55;95250.22;;;14.32;60.37
17209;BME280;8720;48.488;9.202;2023-03-14T03:51:22;95247.59;;;14.32;60.26
17209;BME280;8720;48.488;9.202;2023-03-14T03:53:50;95249.47;;;14.30;60.27
17209;BME280;8720;48.488;9.202;2023-03-14T03:56:23;95257.56;;;14.27;60.27
17209;BME280;8720;48.488;9.202;2023-03-14T03:58:51;95247.22;;;14.24;60.38
17209;BME280;8720;48.488;9.202;2023-03-14T04:01:18;95256.16;;;14.22;60.34
17209;BME280;8720;48.488;9.202;2023-03-14T04:03:50;95259.75;;;14.21;60.18
17209;BME280;8720;48.488;9.202;2023-03-14T04:06:18;95258.88;;;14.20;60.25
17209;BME280;8720;48.488;9.202;2023-03-14T04:08:48;95245.84;;;14.19;60.28
17209;BME280;8720;48.488;9.202;2023-03-14T04:11:50;95250.38;;;14.17;60.29
17209;BME280;8720;48.488;9.202;2023-03-14T04:14:20;95259.19;;;14.16;60.35
17209;BME280;8720;48.488;9.202;2023-03-14T04:16:54;95255.00;;;14.13;60.23
17209;BME280;8720;48.488;9.202;2023-03-14T04:19:22;95256.66;;;14.14;60.11
17209;BME280;8720;48.488;9.202;2023-03-14T04:21:52;95259.28;;;14.14;60.04
17209;BME280;8720;48.488;9.202;2023-03-14T04:24:21;95254.03;;;14.14;60.10
17209;BME280;8720;48.488;9.202;2023-03-14T04:26:49;95243.50;;;14.14;59.88
17209;BME280;8720;48.488;9.202;2023-03-14T04:29:16;95243.50;;;14.14;59.85
17209;BME280;8720;48.488;9.202;2023-03-14T04:31:45;95237.41;;;14.14;60.03
17209;BME280;8720;48.488;9.202;2023-03-14T04:34:13;95240.88;;;14.14;59.70
17209;BME280;8720;48.488;9.202;2023-03-14T04:36:48;95237.41;;;14.14;59.63
17209;BME280;8720;48.488;9.202;2023-03-14T04:39:20;95225.09;;;14.14;59.65
17209;BME280;8720;48.488;9.202;2023-03-14T04:41:57;95226.81;;;14.15;59.65
17209;BME280;8720;48.488;9.202;2023-03-14T04:44:25;95210.06;;;14.16;59.23
17209;BME280;8720;48.488;9.202;2023-03-14T04:46:53;95206.47;;;14.17;59.40
17209;BME280;8720;48.488;9.202;2023-03-14T04:49:21;95195.03;;;14.18;59.12
17209;BME280;8720;48.488;9.202;2023-03-14T04:51:50;95181.88;;;14.18;59.03
17209;BME280;8720;48.488;9.202;2023-03-14T04:54:19;95183.34;;;14.22;58.99
17209;BME280;8720;48.488;9.202;2023-03-14T04:56:51;95173.56;;;14.24;58.76
17209;BME280;8720;48.488;9.202;2023-03-14T04:59:18;95174.31;;;14.26;58.95
17209;BME280;8720;48.488;9.202;2023-03-14T05:01:46;95185.63;;;14.28;58.62
17209;BME280;8720;48.488;9.202;2023-03-14T05:04:36;95172.25;;;14.31;58.70
17209;BME280;8720;48.488;9.202;2023-03-14T05:07:23;95166.78;;;14.34;58.43
17209;BME280;8720;48.488;9.202;2023-03-14T05:10:02;95156.16;;;14.36;58.34
17209;BME280;8720;48.488;9.202;2023-03-14T05:12:41;95159.41;;;14.39;58.32
17209;BME280;8720;48.488;9.202;2023-03-14T05:15:32;95153.09;;;14.42;58.11
17209;BME280;8720;48.488;9.202;2023-03-14T05:18:12;95139.00;;;14.43;58.19
17209;BME280;8720;48.488;9.202;2023-03-14T05:20:54;95146.78;;;14.44;58.08
17209;BME280;8720;48.488;9.202;2023-03-14T05:23:41;95123.81;;;14.46;57.96
17209;BME280;8720;48.488;9.202;2023-03-14T05:26:29;95133.41;;;14.47;57.92
17209;BME280;8720;48.488;9.202;2023-03-14T05:29:14;95121.94;;;14.48;57.87
17209;BME280;8720;48.488;9.202;2023-03-14T05:32:17;95111.41;;;14.48;58.05
17209;BME280;8720;48.488;9.202;2023-03-14T05:35:04;95127.19;;;14.48;57.97
17209;BME280;8720;48.488;9.202;2023-03-14T05:37:51;95123.63;;;14.49;58.00
17209;BME280;8720;48.488;9.202;2023-03-14T05:40:52;95115.75;;;14.49;57.94
17209;BME280;8720;48.488;9.202;2023-03-14T05:43:55;95103.31;;;14.51;57.81
17209;BME280;8720;48.488;9.202;2023-03-14T05:46:41;95108.19;;;14.81;53.50
17209;BME280;8720;48.488;9.202;2023-03-14T05:49:22;95106.72;;;14.77;55.67
17209;BME280;8720;48.488;9.202;2023-03-14T05:51:59;95102.44;;;14.76;56.18
17209;BME280;8720;48.488;9.202;2023-03-14T05:54:43;95098.09;;;14.75;56.55
17209;BME280;8720;48.488;9.202;2023-03-14T05:57:30;95089.25;;;14.76;56.87
17209;BME280;8720;48.488;9.202;2023-03-14T06:00:17;95100.66;;;14.77;56.93
17209;BME280;8720;48.488;9.202;2023-03-14T06:02:57;95101.38;;;14.79;57.01
17209;BME280;8720;48.488;9.202;2023-03-14T06:05:30;95097.78;;;14.80;56.91
17209;BME280;8720;48.488;9.202;2023-03-14T06:08:00;95095.88;;;14.82;56.88
17209;BME280;8720;48.488;9.202;2023-03-14T06:10:30;95094.94;;;14.83;56.71
17209;BME280;8720;48.488;9.202;2023-03-14T06:12:59;95093.13;;;14.83;56.41
17209;BME280;8720;48.488;9.202;2023-03-14T06:15:26;95095.75;;;14.83;56.51
17209;BME280;8720;48.488;9.202;2023-03-14T06:17:56;95081.47;;;14.75;56.63
17209;BME280;8720;48.488;9.202;2023-03-14T06:20:24;95097.34;;;14.86;56.60
17209;BME280;8720;48.488;9.202;2023-03-14T06:22:52;95088.47;;;14.87;56.42
17209;BME280;8720;48.488;9.202;2023-03-14T06:25:19;95090.06;;;14.89;56.51
17209;BME280;8720;48.488;9.202;2023-03-14T06:27:48;95087.31;;;14.91;56.63
17209;BME280;8720;48.488;9.202;2023-03-14T06:30:18;95081.97;;;14.92;56.45
17209;BME280;8720;48.488;9.202;2023-03-14T06:32:46;95091.34;;;14.96;56.81
17209;BME280;8720;48.488;9.202;2023-03-14T06:35:14;95083.09;;;15.01;56.62
17209;BME280;8720;48.488;9.202;2023-03-14T06:37:43;95088.16;;;15.04;56.55
17209;BME280;8720;48.488;9.202;2023-03-14T06:40:12;95099.91;;;15.11;56.46
17209;BME280;8720;48.488;9.202;2023-03-14T06:42:59;95093.59;;;15.13;56.59
17209;BME280;8720;48.488;9.202;2023-03-14T06:45:31;95097.56;;;15.19;56.47
17209;BME280;8720;48.488;9.202;2023-03-14T06:48:00;95086.28;;;15.17;56.18
17209;BME280;8720;48.488;9.202;2023-03-14T06:50:43;95086.59;;;15.25;56.28
17209;BME280;8720;48.488;9.202;2023-03-14T06:53:11;95100.25;;;15.30;56.34
17209;BME280;8720;48.488;9.202;2023-03-14T06:55:41;95093.06;;;15.32;56.20
17209;BME280;8720;48.488;9.202;2023-03-14T06:58:10;95085.91;;;15.34;56.05
17209;BME280;8720;48.488;9.202;2023-03-14T07:00:43;95095.25;;;15.38;55.99
17209;BME280;8720;48.488;9.202;2023-03-14T07:03:15;95094.97;;;15.42;55.94
17209;BME280;8720;48.488;9.202;2023-03-14T07:05:46;95098.94;;;15.48;55.85
17209;BME280;8720;48.488;9.202;2023-03-14T07:08:14;95110.47;;;15.58;56.06
17209;BME280;8720;48.488;9.202;2023-03-14T07:10:41;95111.16;;;15.73;56.20
17209;BME280;8720;48.488;9.202;2023-03-14T07:13:10;95106.97;;;15.81;55.99
17209;BME280;8720;48.488;9.202;2023-03-14T07:15:59;95110.00;;;15.99;56.13
17209;BME280;8720;48.488;9.202;2023-03-14T07:18:27;95113.53;;;16.10;55.74
17209;BME280;8720;48.488;9.202;2023-03-14T07:20:56;95125.19;;;16.19;55.41
17209;BME280;8720;48.488;9.202;2023-03-14T07:23:23;95126.75;;;16.21;55.19
17209;BME280;8720;48.488;9.202;2023-03-14T07:25:53;95124.94;;;16.22;55.01
17209;BME280;8720;48.488;9.202;2023-03-14T07:28:22;95118.84;;;16.21;55.09
17209;BME280;8720;48.488;9.202;2023-03-14T07:30:56;95114.91;;;16.27;54.99
17209;BME280;8720;48.488;9.202;2023-03-14T07:33:29;95118.13;;;16.42;55.35
17209;BME280;8720;48.488;9.202;2023-03-14T07:36:01;95115.91;;;16.70;55.59
17209;BME280;8720;48.488;9.202;2023-03-14T07:38:29;95125.97;;;17.09;55.90
17209;BME280;8720;48.488;9.202;2023-03-14T07:41:15;95139.44;;;17.71;55.78
17209;BME280;8720;48.488;9.202;2023-03-14T07:44:04;95139.84;;;18.19;54.54
17209;BME280;8720;48.488;9.202;2023-03-14T07:46:31;95142.28;;;18.43;53.42
17209;BME280;8720;48.488;9.202;2023-03-14T07:49:00;95145.69;;;18.54;52.70
17209;BME280;8720;48.488;9.202;2023-03-14T07:51:27;95149.19;;;18.55;52.06
17209;BME280;8720;48.488;9.202;2023-03-14T07:53:54;95153.88;;;18.51;52.16
17209;BME280;8720;48.488;9.202;2023-03-14T07:56:21;95158.22;;;18.52;51.76
17209;BME280;8720;48.488;9.202;2023-03-14T07:58:49;95164.38;;;18.53;51.93
17209;BME280;8720;48.488;9.202;2023-03-14T08:01:16;95166.03;;;18.54;51.83
17209;BME280;8720;48.488;9.202;2023-03-14T08:03:43;95155.72;;;18.51;51.46
17209;BME280;8720;48.488;9.202;2023-03-14T08:06:12;95159.81;;;18.44;51.48
17209;BME280;8720;48.488;9.202;2023-03-14T08:08:40;95169.06;;;18.49;51.40
17209;BME280;8720;48.488;9.202;2023-03-14T08:11:08;95166.53;;;18.48;51.35
17209;BME280;8720;48.488;9.202;2023-03-14T08:13:35;95169.09;;;18.38;51.65
17209;BME280;8720;48.488;9.202;2023-03-14T08:16:04;95172.97;;;18.45;51.35
17209;BME280;8720;48.488;9.202;2023-03-14T08:18:32;95176.19;;;18.49;51.31
17209;BME280;8720;48.488;9.202;2023-03-14T08:21:00;95163.06;;;18.47;51.44
17209;BME280;8720;48.488;9.202;2023-03-14T08:23:28;95159.72;;;18.45;51.21
17209;BME280;8720;48.488;9.202;2023-03-14T08:25:55;95165.72;;;18.47;51.12
17209;BME280;8720;48.488;9.202;2023-03-14T08:28:23;95166.81;;;18.45;51.17
17209;BME280;8720;48.488;9.202;2023-03-14T08:30:51;95174.16;;;18.41;50.98
17209;BME280;8720;48.488;9.202;2023-03-14T08:33:18;95170.06;;;18.37;50.90
17209;BME280;8720;48.488;9.202;2023-03-14T08:35:45;95168.38;;;18.36;50.80
17209;BME280;8720;48.488;9.202;2023-03-14T08:38:12;95168.38;;;18.36;51.04
17209;BME280;8720;48.488;9.202;2023-03-14T08:40:41;95167.66;;;18.45;50.84
17209;BME280;8720;48.488;9.202;2023-03-14T08:43:08;95166.03;;;18.54;51.03
17209;BME280;8720;48.488;9.202;2023-03-14T08:45:36;95164.78;;;18.58;51.07
17209;BME280;8720;48.488;9.202;2023-03-14T08:48:05;95170.66;;;18.82;51.35
17209;BME280;8720;48.488;9.202;2023-03-14T08:50:32;95169.06;;;19.00;51.64
17209;BME280;8720;48.488;9.202;2023-03-14T08:53:00;95168.72;;;19.14;51.23
17209;BME280;8720;48.488;9.202;2023-03-14T08:55:28;95169.78;;;19.32;51.11
17209;BME280;8720;48.488;9.202;2023-03-14T08:57:57;95170.50;;;19.44;50.58
17209;BME280;8720;48.488;9.202;2023-03-14T09:00:24;95171.81;;;19.49;50.80
17209;BME280;8720;48.488;9.202;2023-03-14T09:02:52;95170.69;;;19.52;50.26
17209;BME280;8720;48.488;9.202;2023-03-14T09:05:19;95165.13;;;19.55;50.04
17209;BME280;8720;48.488;9.202;2023-03-14T09:07:47;95178.41;;;19.64;50.02
17209;BME280;8720;48.488;9.202;2023-03-14T09:10:14;95182.19;;;19.71;50.00
17209;BME280;8720;48.488;9.202;2023-03-14T09:12:41;95191.41;;;19.77;50.22
17209;BME280;8720;48.488;9.202;2023-03-14T09:15:11;95184.16;;;19.79;49.46
17209;BME280;8720;48.488;9.202;2023-03-14T09:17:38;95206.25;;;19.89;50.31
17209;BME280;8720;48.488;9.202;2023-03-14T09:20:07;95189.47;;;19.88;49.75
17209;BME280;8720;48.488;9.202;2023-03-14T09:22:35;95207.06;;;19.80;50.13
17209;BME280;8720;48.488;9.202;2023-03-14T09:25:02;95203.69;;;19.68;50.03
17209;BME280;8720;48.488;9.202;2023-03-14T09:27:30;95209.38;;;19.54;49.92
17209;BME280;8720;48.488;9.202;2023-03-14T09:29:57;95210.72;;;19.39;50.63
17209;BME280;8720;48.488;9.202;2023-03-14T09:32:26;95210.78;;;19.28;50.84
17209;BME280;8720;48.488;9.202;2023-03-14T09:34:53;95216.16;;;19.17;51.07
17209;BME280;8720;48.488;9.202;2023-03-14T09:37:20;95214.75;;;19.13;50.95
17209;BME280;8720;48.488;9.202;2023-03-14T09:39:48;95213.59;;;19.06;51.64
17209;BME280;8720;48.488;9.202;2023-03-14T09:42:18;95223.78;;;19.01;50.98
17209;BME280;8720;48.488;9.202;2023-03-14T09:44:55;95213.50;;;18.87;51.51
17209;BME280;8720;48.488;9.202;2023-03-14T09:47:26;95230.31;;;18.97;51.62
17209;BME280;8720;48.488;9.202;2023-03-14T09:49:53;95228.88;;;18.93;51.57
17209;BME280;8720;48.488;9.202;2023-03-14T09:52:27;95233.47;;;18.91;51.79
17209;BME280;8720;48.488;9.202;2023-03-14T09:55:02;95236.13;;;18.91;51.54
17209;BME280;8720;48.488;9.202;2023-03-14T09:57:34;95230.09;;;18.89;51.58
17209;BME280;8720;48.488;9.202;2023-03-14T10:00:10;95224.63;;;18.81;51.20
17209;BME280;8720;48.488;9.202;2023-03-14T10:02:50;95224.19;;;18.76;51.83
17209;BME280;8720;48.488;9.202;2023-03-14T10:05:21;95226.34;;;18.71;51.75
17209;BME280;8720;48.488;9.202;2023-03-14T10:07:49;95230.13;;;18.68;51.78
17209;BME280;8720;48.488;9.202;2023-03-14T10:10:19;95222.19;;;18.68;51.47
17209;BME280;8720;48.488;9.202;2023-03-14T10:12:55;95229.41;;;18.66;51.76
17209;BME280;8720;48.488;9.202;2023-03-14T10:15:29;95231.06;;;18.67;51.99
17209;BME280;8720;48.488;9.202;2023-03-14T10:18:00;95227.47;;;18.68;52.09
17209;BME280;8720;48.488;9.202;2023-03-14T10:20:34;95229.00;;;18.71;51.65
17209;BME280;8720;48.488;9.202;2023-03-14T10:23:04;95223.47;;;18.74;51.55
17209;BME280;8720;48.488;9.202;2023-03-14T10:25:35;95232.50;;;18.71;51.30
17209;BME280;8720;48.488;9.202;2023-03-14T10:28:04;95230.22;;;18.67;51.52
17209;BME280;8720;48.488;9.202;2023-03-14T10:30:43;95225.19;;;18.64;51.80
17209;BME280;8720;48.488;9.202;2023-03-14T10:33:22;95228.81;;;18.63;51.80
17209;BME280;8720;48.488;9.202;2023-03-14T10:35:56;95221.84;;;18.62;51.52
17209;BME280;8720;48.488;9.202;2023-03-14T10:38:27;95222.78;;;18.61;51.20
17209;BME280;8720;48.488;9.202;2023-03-14T10:40:56;95226.44;;;18.60;51.24
17209;BME280;8720;48.488;9.202;2023-03-14T10:43:28;95218.63;;;18.58;51.29
17209;BME280;8720;48.488;9.202;2023-03-14T10:46:01;95223.19;;;18.56;51.61
17209;BME280;8720;48.488;9.202;2023-03-14T10:48:34;95214.91;;;18.50;51.26
17209;BME280;8720;48.488;9.202;2023-03-14T10:51:07;95225.38;;;18.51;51.14
17209;BME280;8720;48.488;9.202;2023-03-14T10:53:42;95215.91;;;18.49;51.19
17209;BME280;8720;48.488;9.202;2023-03-14T10:56:14;95220.50;;;18.47;51.12
17209;BME280;8720;48.488;9.202;2023-03-14T10:58:44;95223.97;;;18.47;51.38
17209;BME280;8720;48.488;9.202;2023-03-14T11:01:34;95226.50;;;18.49;51.97
17209;BME280;8720;48.488;9.202;2023-03-14T11:04:18;95239.88;;;18.47;51.42
17209;BME280;8720;48.488;9.202;2023-03-14T11:06:56;95241.44;;;18.39;52.07
17209;BME280;8720;48.488;9.202;2023-03-14T11:09:35;95242.19;;;18.30;52.31
17209;BME280;8720;48.488;9.202;2023-03-14T11:12:29;95256.31;;;18.19;52.45
17209;BME280;8720;48.488;9.202;2023-03-14T11:15:11;95249.75;;;18.02;52.25
17209;BME280;8720;48.488;9.202;2023-03-14T11:17:53;95277.44;;;17.87;52.64
17209;BME280;8720;48.488;9.202;2023-03-14T11:20:37;95270.38;;;17.66;52.95
17209;BME280;8720;48.488;9.202;2023-03-14T11:23:15;95279.63;;;17.49;53.60
17209;BME280;8720;48.488;9.202;2023-03-14T11:25:54;95274.31;;;17.38;53.92
17209;BME280;8720;48.488;9.202;2023-03-14T11:28:29;95272.03;;;17.22;53.71
17209;BME280;8720;48.488;9.202;2023-03-14T11:31:10;95297.75;;;17.20;54.13
17209;BME280;8720;48.488;9.202;2023-03-14T11:33:49;95293.78;;;17.15;54.25
17209;BME280;8720;48.488;9.202;2023-03-14T11:36:27;95292.31;;;17.11;54.27
17209;BME280;8720;48.488;9.202;2023-03-14T11:38:59;95294.25;;;17.09;54.37
17209;BME280;8720;48.488;9.202;2023-03-14T11:41:33;95306.84;;;17.05;54.38
17209;BME280;8720;48.488;9.202;2023-03-14T11:44:13;95298.91;;;16.94;54.77
17209;BME280;8720;48.488;9.202;2023-03-14T11:46:48;95307.56;;;16.96;54.67
17209;BME280;8720;48.488;9.202;2023-03-14T11:49:30;95308.88;;;16.91;55.09
17209;BME280;8720;48.488;9.202;2023-03-14T11:52:09;95298.50;;;16.77;54.96
17209;BME280;8720;48.488;9.202;2023-03-14T11:54:47;95302.81;;;16.78;55.37
17209;BME280;8720;48.488;9.202;2023-03-14T11:57:19;95311.47;;;16.80;55.54
17209;BME280;8720;48.488;9.202;2023-03-14T11:59:53;95316.66;;;16.81;55.42
17209;BME280;8720;48.488;9.202;2023-03-14T12:02:31;95313.28;;;16.79;55.51
17209;BME280;8720;48.488;9.202;2023-03-14T12:05:37;95306.56;;;16.75;56.03
17209;BME280;8720;48.488;9.202;2023-03-14T12:08:46;95313.88;;;16.72;56.05
17209;BME280;8720;48.488;9.202;2023-03-14T12:11:22;95320.94;;;16.71;55.80
17209;BME280;8720;48.488;9.202;2023-03-14T12:13:53;95330.16;;;16.66;55.52
17209;BME280;8720;48.488;9.202;2023-03-14T12:16:36;95339.28;;;16.62;55.78
17209;BME280;8720;48.488;9.202;2023-03-14T12:19:34;95352.31;;;16.52;56.35
17209;BME280;8720;48.488;9.202;2023-03-14T12:22:19;95364.34;;;16.44;56.16
17209;BME280;8720;48.488;9.202;2023-03-14T12:24:58;95382.88;;;16.31;56.24
17209;BME280;8720;48.488;9.202;2023-03-14T12:28:04;95392.53;;;16.07;57.01
17209;BME280;8720;48.488;9.202;2023-03-14T12:30:34;95421.28;;;15.86;56.57
17209;BME280;8720;48.488;9.202;2023-03-14T12:33:30;95427.44;;;15.62;56.45
17209;BME280;8720;48.488;9.202;2023-03-14T12:39:21;95432.63;;;15.24;57.00
17209;BME280;8720;48.488;9.202;2023-03-14T12:42:03;95431.03;;;15.09;57.33
17209;BME280;8720;48.488;9.202;2023-03-14T12:44:46;95443.16;;;15.11;57.20
17209;BME280;8720;48.488;9.202;2023-03-14T12:47:48;95456.41;;;15.10;58.00
17209;BME280;8720;48.488;9.202;2023-03-14T12:50:28;95456.53;;;15.08;57.64
17209;BME280;8720;48.488;9.202;2023-03-14T12:53:43;95469.72;;;15.21;58.25
17209;BME280;8720;48.488;9.202;2023-03-14T12:56:32;95481.44;;;15.29;57.60
17209;BME280;8720;48.488;9.202;2023-03-14T12:59:36;95492.41;;;15.36;57.76
17209;BME280;8720;48.488;9.202;2023-03-14T13:02:24;95517.63;;;15.40;57.36
17209;BME280;8720;48.488;9.202;2023-03-14T13:05:02;95512.91;;;15.45;57.10
17209;BME280;8720;48.488;9.202;2023-03-14T13:08:09;95531.16;;;15.48;57.49
17209;BME280;8720;48.488;9.202;2023-03-14T13:10:45;95541.31;;;15.54;56.66
17209;BME280;8720;48.488;9.202;2023-03-14T13:13:20;95554.25;;;15.57;55.39
17209;BME280;8720;48.488;9.202;2023-03-14T13:15:54;95553.94;;;15.49;54.88
17209;BME280;8720;48.488;9.202;2023-03-14T13:18:29;95571.03;;;15.56;54.13
17209;BME280;8720;48.488;9.202;2023-03-14T13:21:05;95572.19;;;15.52;53.58
17209;BME280;8720;48.488;9.202;2023-03-14T13:23:36;95584.69;;;15.48;53.83
17209;BME280;8720;48.488;9.202;2023-03-14T13:26:13;95587.66;;;15.44;53.31
17209;BME280;8720;48.488;9.202;2023-03-14T13:28:41;95611.53;;;15.41;53.52
17209;BME280;8720;48.488;9.202;2023-03-14T13:31:22;95610.25;;;15.34;53.52
17209;BME280;8720;48.488;9.202;2023-03-14T13:33:59;95620.34;;;15.27;52.96
17209;BME280;8720;48.488;9.202;2023-03-14T13:36:27;95640.59;;;15.27;53.25
17209;BME280;8720;48.488;9.202;2023-03-14T13:39:00;95639.84;;;15.25;52.99
17209;BME280;8720;48.488;9.202;2023-03-14T13:41:28;95662.59;;;15.26;52.44
17209;BME280;8720;48.488;9.202;2023-03-14T13:44:03;95673.53;;;15.20;52.60
17209;BME280;8720;48.488;9.202;2023-03-14T13:46:36;95679.59;;;15.08;52.11
17209;BME280;8720;48.488;9.202;2023-03-14T13:49:09;95666.88;;;15.00;51.93